Time;durP1;ratioP1;P1;durP2;ratioP2;P2;SDS_P1;SDS_P2;PMS_P1;PMS_P2;Temp;Humidity;BMP_temperature;BMP_pressure;BME280_temperature;BME280_humidity;BME280_pressure;Samples;Min_cycle;Max_cycle;Signal;HPM_P1;HPM_P2
2023/05/19 00:00:57;;;;;;;6.47;3.10;;;;;;;7.83;96.72;97745.78;4985934;28;20049;-52
2023/05/19 00:03:24;;;;;;;9.10;2.78;;;;;;;7.83;97.24;97743.91;4982285;28;20121;-48
2023/05/19 00:05:52;;;;;;;5.80;3.08;;;;;;;7.75;97.25;97741.53;4982796;28;20038;-52
2023/05/19 00:08:21;;;;;;;6.57;3.05;;;;;;;7.78;97.11;97746.47;4985964;28;20341;-54
2023/05/19 00:10:48;;;;;;;8.23;3.03;;;;;;;7.74;97.23;97738.00;4981272;28;20038;-52
2023/05/19 00:13:15;;;;;;;6.05;2.95;;;;;;;7.52;98.52;97740.31;4984443;28;20050;-49
2023/05/19 00:15:41;;;;;;;5.72;2.80;;;;;;;7.35;100.00;97737.38;4982962;28;20049;-55
2023/05/19 00:18:08;;;;;;;9.02;2.90;;;;;;;7.47;99.97;97740.97;4980866;28;20046;-53
2023/05/19 00:20:36;;;;;;;6.05;3.00;;;;;;;7.37;99.68;97741.47;4985405;28;20038;-51
2023/05/19 00:23:03;;;;;;;9.63;3.05;;;;;;;7.12;100.00;97739.63;4980851;28;20566;-53
2023/05/19 00:25:30;;;;;;;6.63;3.10;;;;;;;7.11;100.00;97737.19;4979602;28;20038;-51
2023/05/19 00:27:58;;;;;;;7.22;2.97;;;;;;;7.16;100.00;97734.63;4989397;28;20038;-54
2023/05/19 00:30:25;;;;;;;5.85;3.00;;;;;;;7.24;100.00;97737.06;4980808;28;20050;-49
2023/05/19 00:32:51;;;;;;;8.50;3.00;;;;;;;6.98;100.00;97730.03;4986967;28;20626;-52
2023/05/19 00:35:19;;;;;;;7.55;3.10;;;;;;;6.85;100.00;97726.38;4985566;28;20104;-53
2023/05/19 00:37:45;;;;;;;6.80;2.90;;;;;;;6.76;100.00;97731.22;4983500;28;20077;-51
2023/05/19 00:40:12;;;;;;;8.52;2.97;;;;;;;6.87;100.00;97734.25;4983722;28;20125;-47
2023/05/19 00:42:40;;;;;;;5.18;2.50;;;;;;;6.98;100.00;97728.16;4986472;28;20101;-48
2023/05/19 00:45:07;;;;;;;8.48;3.28;;;;;;;7.06;100.00;97726.22;4987367;28;20421;-48
2023/05/19 00:47:34;;;;;;;7.65;2.70;;;;;;;6.95;100.00;97725.91;4982963;28;20049;-53
2023/05/19 00:50:00;;;;;;;6.88;3.47;;;;;;;6.89;100.00;97726.75;4978906;28;20038;-50
2023/05/19 00:52:27;;;;;;;10.60;3.03;;;;;;;6.88;100.00;97725.13;4979424;28;20065;-49
2023/05/19 00:54:54;;;;;;;7.80;3.50;;;;;;;6.90;100.00;97715.78;4986144;28;20411;-53
2023/05/19 00:57:21;;;;;;;8.02;3.75;;;;;;;6.97;100.00;97715.72;4983697;28;20089;-47
2023/05/19 00:59:48;;;;;;;7.43;2.97;;;;;;;7.07;100.00;97719.81;4992555;28;20030;-53
2023/05/19 01:02:14;;;;;;;7.72;2.97;;;;;;;7.00;100.00;97719.84;4985261;28;20139;-52
2023/05/19 01:04:43;;;;;;;8.27;3.65;;;;;;;6.68;100.00;97715.34;4989758;28;20042;-52
2023/05/19 01:07:11;;;;;;;7.38;2.67;;;;;;;6.76;100.00;97716.94;4984829;28;20050;-53
2023/05/19 01:09:39;;;;;;;5.43;2.80;;;;;;;6.95;100.00;97717.00;4987586;28;20490;-51
2023/05/19 01:12:07;;;;;;;8.27;3.05;;;;;;;7.09;100.00;97715.84;4987249;28;20445;-51
2023/05/19 01:14:35;;;;;;;5.85;3.00;;;;;;;6.86;100.00;97722.66;4988979;28;20145;-44
2023/05/19 01:17:36;;;;;;;6.88;3.15;;;;;;;6.88;100.00;97723.28;4991289;28;20521;-47
2023/05/19 01:20:26;;;;;;;6.38;2.58;;;;;;;6.94;100.00;97715.34;4962995;28;20189;-47
2023/05/19 01:23:13;;;;;;;5.97;3.00;;;;;;;6.84;100.00;97719.38;4985418;28;20042;-48
2023/05/19 01:25:55;;;;;;;6.35;2.67;;;;;;;6.84;100.00;97727.44;4966941;28;20046;-50
2023/05/19 01:28:48;;;;;;;9.30;2.88;;;;;;;6.95;100.00;97728.59;4984676;28;20050;-54
2023/05/19 01:31:17;;;;;;;5.18;2.67;;;;;;;6.79;100.00;97729.13;4985868;28;20160;-53
2023/05/19 01:33:46;;;;;;;9.25;3.17;;;;;;;6.86;100.00;97724.53;4981489;28;20069;-54
2023/05/19 01:36:14;;;;;;;6.65;3.15;;;;;;;6.95;100.00;97730.44;4982046;28;20042;-51
2023/05/19 01:38:42;;;;;;;6.57;3.05;;;;;;;7.04;100.00;97723.75;4984386;28;20054;-51
2023/05/19 01:41:10;;;;;;;7.35;2.58;;;;;;;7.24;100.00;97726.28;4956968;28;20665;-52
2023/05/19 01:43:37;;;;;;;6.90;2.60;;;;;;;7.06;100.00;97720.84;4981309;28;20505;-49
2023/05/19 01:46:05;;;;;;;7.57;2.85;;;;;;;6.95;100.00;97719.69;4983304;28;20478;-52
2023/05/19 01:48:32;;;;;;;8.05;2.80;;;;;;;6.78;100.00;97714.84;4987171;28;20637;-49
2023/05/19 01:50:59;;;;;;;7.82;2.95;;;;;;;6.76;100.00;97716.94;4984764;28;20046;-51
2023/05/19 01:53:25;;;;;;;7.78;2.95;;;;;;;6.87;100.00;97718.94;4985630;28;20065;-53
2023/05/19 01:55:55;;;;;;;6.70;2.70;;;;;;;6.89;100.00;97726.75;4983554;28;20394;-54
2023/05/19 01:58:46;;;;;;;6.95;3.05;;;;;;;6.86;100.00;97728.03;4985241;28;20054;-49
2023/05/19 02:01:44;;;;;;;9.43;3.10;;;;;;;6.81;100.00;97727.06;4982139;28;20285;-53
2023/05/19 02:04:13;;;;;;;6.30;2.60;;;;;;;6.61;100.00;97723.47;4978937;28;20038;-50
2023/05/19 02:07:02;;;;;;;6.60;3.13;;;;;;;6.56;100.00;97720.59;4977032;28;20473;-48
2023/05/19 02:09:39;;;;;;;7.60;3.10;;;;;;;6.71;100.00;97716.78;4981273;28;20053;-48
2023/05/19 02:12:15;;;;;;;5.13;2.67;;;;;;;6.66;100.00;97722.00;4983056;28;20141;-52
2023/05/19 02:15:04;;;;;;;4.88;2.75;;;;;;;6.63;100.00;97726.75;4986033;28;20046;-52
2023/05/19 02:17:35;;;;;;;7.38;3.20;;;;;;;6.57;100.00;97727.63;4970818;28;20077;-53
2023/05/19 02:20:03;;;;;;;9.77;2.92;;;;;;;6.46;100.00;97723.78;4980329;28;20045;-47
2023/05/19 02:22:30;;;;;;;6.68;2.75;;;;;;;6.45;100.00;97722.09;4985660;28;20042;-49
2023/05/19 02:24:57;;;;;;;9.80;3.25;;;;;;;6.39;100.00;97728.38;4988139;28;20076;-49
2023/05/19 02:27:23;;;;;;;5.88;3.13;;;;;;;6.31;100.00;97731.31;4986094;28;20573;-48
2023/05/19 02:29:51;;;;;;;5.20;2.80;;;;;;;6.23;100.00;97732.38;4981669;28;20073;-48
2023/05/19 02:32:17;;;;;;;6.97;3.35;;;;;;;6.22;100.00;97730.72;4980763;28;20536;-49
2023/05/19 02:34:45;;;;;;;6.53;2.78;;;;;;;6.37;100.00;97733.13;4982234;28;20043;-49
2023/05/19 02:37:13;;;;;;;7.28;3.08;;;;;;;6.35;100.00;97732.53;4987636;28;20443;-52
2023/05/19 02:39:43;;;;;;;6.07;2.92;;;;;;;6.27;100.00;97730.09;4982430;28;20077;-52
2023/05/19 02:42:10;;;;;;;4.10;2.42;;;;;;;6.34;100.00;97725.50;4984889;28;20076;-50
2023/05/19 02:44:37;;;;;;;7.75;3.30;;;;;;;6.45;100.00;97714.03;4990258;28;20129;-49
2023/05/19 02:47:03;;;;;;;6.70;2.72;;;;;;;6.48;100.00;97719.00;4987636;28;20038;-51
2023/05/19 02:49:34;;;;;;;9.00;3.00;;;;;;;6.58;100.00;97721.22;4982585;28;20046;-54
2023/05/19 02:52:04;;;;;;;4.97;2.95;;;;;;;6.59;100.00;97717.47;4979978;28;20423;-53
2023/05/19 02:54:33;;;;;;;9.77;3.05;;;;;;;6.37;100.00;97712.44;4979360;28;20124;-52
2023/05/19 02:57:01;;;;;;;6.10;3.10;;;;;;;6.44;100.00;97709.72;4979700;28;20414;-51
2023/05/19 02:59:27;;;;;;;7.50;3.10;;;;;;;6.58;100.00;97709.63;4980135;28;20042;-52
2023/05/19 03:02:00;;;;;;;6.18;2.78;;;;;;;6.71;100.00;97708.72;4985061;28;20061;-54
2023/05/19 03:04:28;;;;;;;6.93;2.88;;;;;;;6.72;100.00;97708.50;4986099;28;20067;-49
2023/05/19 03:06:56;;;;;;;6.00;2.80;;;;;;;6.69;100.00;97710.78;4989344;28;20108;-54
2023/05/19 03:09:22;;;;;;;6.10;2.90;;;;;;;6.73;100.00;97710.13;4981757;28;20536;-52
2023/05/19 03:11:49;;;;;;;9.65;2.55;;;;;;;6.81;100.00;97714.41;4991010;28;20073;-52
2023/05/19 03:14:17;;;;;;;9.00;3.67;;;;;;;6.85;100.00;97707.56;4982737;28;20056;-53
2023/05/19 03:16:43;;;;;;;7.57;3.00;;;;;;;6.92;100.00;97707.50;4986677;28;20433;-51
2023/05/19 03:19:10;;;;;;;8.93;2.83;;;;;;;6.89;100.00;97708.75;4979058;28;20038;-54
2023/05/19 03:21:37;;;;;;;6.30;2.60;;;;;;;6.79;100.00;97703.06;4986123;28;20788;-51
2023/05/19 03:24:04;;;;;;;5.10;2.90;;;;;;;6.82;100.00;97707.97;4979833;28;20043;-51
2023/05/19 03:26:31;;;;;;;6.07;2.70;;;;;;;6.81;100.00;97698.25;4976491;28;20333;-51
2023/05/19 03:28:58;;;;;;;6.75;3.08;;;;;;;6.83;100.00;97701.56;5002691;28;20098;-49
2023/05/19 03:31:25;;;;;;;6.97;2.72;;;;;;;6.90;100.00;97702.31;4983526;28;20485;-52
2023/05/19 03:33:52;;;;;;;6.72;2.95;;;;;;;6.95;100.00;97700.84;4966900;28;20081;-50
2023/05/19 03:36:20;;;;;;;6.47;2.70;;;;;;;6.93;100.00;97695.66;4977552;28;20581;-53
2023/05/19 03:38:47;;;;;;;7.47;2.63;;;;;;;6.84;100.00;97699.69;4981730;28;20042;-50
2023/05/19 03:41:14;;;;;;;6.65;2.60;;;;;;;6.90;100.00;97705.00;4986359;28;20073;-54
2023/05/19 03:43:41;;;;;;;6.07;2.95;;;;;;;6.99;100.00;97704.75;4989346;28;20048;-54
2023/05/19 03:46:08;;;;;;;7.72;3.22;;;;;;;7.10;100.00;97698.66;4982310;28;20145;-52
2023/05/19 03:49:03;;;;;;;7.90;2.72;;;;;;;7.15;100.00;97714.94;4984340;28;20060;-54
2023/05/19 03:51:35;;;;;;;7.47;2.70;;;;;;;7.14;100.00;97710.63;4975795;28;20050;-53
2023/05/19 03:54:15;;;;;;;6.15;2.85;;;;;;;7.09;100.00;97706.94;4980987;28;20042;-54
2023/05/19 03:56:42;;;;;;;5.70;2.53;;;;;;;7.15;100.00;97712.25;4973333;28;20537;-54
2023/05/19 03:59:11;;;;;;;4.53;2.72;;;;;;;7.23;100.00;97716.53;4978395;28;20502;-50
2023/05/19 04:01:38;;;;;;;5.18;2.53;;;;;;;7.35;100.00;97713.94;4965929;28;20316;-53
2023/05/19 04:04:04;;;;;;;7.22;2.40;;;;;;;7.24;100.00;97717.38;4982532;28;20494;-50
2023/05/19 04:06:32;;;;;;;5.55;2.80;;;;;;;7.28;100.00;97716.72;4982758;28;20066;-47
2023/05/19 04:09:01;;;;;;;6.22;2.50;;;;;;;7.21;100.00;97720.50;4979122;28;20042;-53
2023/05/19 04:11:28;;;;;;;6.70;2.83;;;;;;;7.28;98.18;97724.78;4982008;28;20050;-54
2023/05/19 04:13:54;;;;;;;4.80;2.25;;;;;;;7.32;99.70;97724.31;4984350;28;20053;-53
2023/05/19 04:16:21;;;;;;;8.77;3.05;;;;;;;7.20;100.00;97725.06;4982401;28;20544;-51
2023/05/19 04:18:47;;;;;;;7.38;2.80;;;;;;;7.26;100.00;97715.28;4963659;28;20133;-50
2023/05/19 04:21:14;;;;;;;8.70;2.70;;;;;;;7.11;100.00;97724.53;4979743;28;20379;-48
2023/05/19 04:23:40;;;;;;;5.32;2.72;;;;;;;7.30;98.58;97727.28;4981587;28;20033;-48
2023/05/19 04:26:07;;;;;;;7.25;3.08;;;;;;;7.50;96.21;97732.47;4985722;28;20189;-48
2023/05/19 04:28:37;;;;;;;5.25;2.85;;;;;;;7.42;99.19;97730.06;4979963;28;20054;-50
2023/05/19 04:31:09;;;;;;;7.13;2.42;;;;;;;7.22;100.00;97727.56;4978220;28;20571;-53
2023/05/19 04:33:36;;;;;;;5.07;2.50;;;;;;;7.20;100.00;97726.94;4981287;28;20532;-46
2023/05/19 04:36:09;;;;;;;6.32;2.42;;;;;;;7.31;99.58;97728.91;4986582;28;20441;-49
2023/05/19 04:38:38;;;;;;;9.35;2.75;;;;;;;7.56;94.14;97736.13;4980453;28;20042;-49
2023/05/19 04:41:10;;;;;;;5.88;2.30;;;;;;;7.58;96.20;97731.31;4987432;28;20042;-50
2023/05/19 04:43:43;;;;;;;7.68;2.88;;;;;;;7.76;91.73;97727.81;4981960;28;20306;-48
2023/05/19 04:46:11;;;;;;;7.88;2.67;;;;;;;7.74;95.23;97732.59;4984000;28;20050;-49
2023/05/19 04:48:41;;;;;;;5.03;2.65;;;;;;;7.81;91.01;97732.53;4982541;28;20093;-47
2023/05/19 04:51:08;;;;;;;6.03;2.70;;;;;;;7.84;89.86;97725.84;4987986;28;20039;-49
2023/05/19 04:53:35;;;;;;;6.28;2.28;;;;;;;7.86;90.46;97730.00;4988735;28;20561;-49
2023/05/19 04:56:04;;;;;;;7.15;2.85;;;;;;;8.01;89.29;97728.78;4987747;28;20184;-49
2023/05/19 04:58:32;;;;;;;6.32;2.45;;;;;;;8.13;88.17;97726.97;4986908;28;20506;-51
2023/05/19 05:00:58;;;;;;;7.53;3.00;;;;;;;8.28;87.03;97723.88;4984369;28;20057;-50
2023/05/19 05:03:26;;;;;;;11.38;2.58;;;;;;;8.36;86.49;97728.09;4989317;28;20539;-54
2023/05/19 05:05:53;;;;;;;6.60;2.60;;;;;;;8.37;85.90;97742.44;4986380;28;20129;-48
2023/05/19 05:08:22;;;;;;;5.30;2.25;;;;;;;8.33;85.24;97736.66;4985724;28;20045;-47
2023/05/19 05:10:50;;;;;;;7.70;2.63;;;;;;;8.35;85.12;97734.56;4981946;28;20058;-48
2023/05/19 05:13:20;;;;;;;5.82;2.20;;;;;;;8.28;85.74;97736.53;4979954;28;20141;-50
2023/05/19 05:15:47;;;;;;;6.18;2.42;;;;;;;8.52;84.78;97726.63;4985000;28;20042;-49
2023/05/19 05:18:14;;;;;;;5.40;2.40;;;;;;;8.45;85.08;97726.72;4980350;28;20050;-49
2023/05/19 05:20:42;;;;;;;5.80;2.55;;;;;;;8.64;84.95;97720.50;4984022;28;20045;-49
2023/05/19 05:23:13;;;;;;;10.35;2.75;;;;;;;8.53;84.29;97716.69;4987793;28;20038;-49
2023/05/19 05:25:43;;;;;;;6.80;2.88;;;;;;;8.61;84.11;97727.16;4983166;28;20684;-48
2023/05/19 05:28:10;;;;;;;6.95;2.33;;;;;;;8.58;84.20;97727.63;4981117;28;20046;-50
2023/05/19 05:30:36;;;;;;;5.82;2.55;;;;;;;8.75;83.23;97732.38;4990055;28;20046;-52
2023/05/19 05:33:05;;;;;;;7.80;2.25;;;;;;;8.96;82.81;97733.72;4982661;28;20050;-55
2023/05/19 05:35:35;;;;;;;7.15;2.40;;;;;;;8.98;82.83;97731.59;4987103;28;20253;-53
2023/05/19 05:38:03;;;;;;;6.47;2.10;;;;;;;9.19;82.04;97726.69;4981677;28;20064;-52
2023/05/19 05:40:30;;;;;;;6.72;2.38;;;;;;;9.06;81.60;97725.00;4988561;28;20140;-52
2023/05/19 05:42:57;;;;;;;5.07;2.35;;;;;;;9.22;80.70;97729.72;4975510;28;20049;-49
2023/05/19 05:45:27;;;;;;;4.97;2.33;;;;;;;9.24;80.63;97726.81;4984221;28;20326;-54
2023/05/19 05:47:54;;;;;;;11.38;2.88;;;;;;;9.27;80.42;97722.81;4983775;28;20130;-48
2023/05/19 05:50:22;;;;;;;4.47;1.80;;;;;;;9.14;80.56;97727.38;4981076;28;20050;-52
2023/05/19 05:52:49;;;;;;;5.93;2.60;;;;;;;9.14;81.70;97723.88;4985585;28;20133;-51
2023/05/19 05:55:17;;;;;;;7.85;2.83;;;;;;;9.23;80.91;97731.41;4982136;28;20050;-52
2023/05/19 05:57:44;;;;;;;4.68;2.30;;;;;;;9.28;80.66;97729.88;4975747;28;20120;-54
2023/05/19 06:00:14;;;;;;;4.05;1.95;;;;;;;9.29;82.28;97731.50;4991344;28;20041;-51
2023/05/19 06:02:48;;;;;;;5.22;1.90;;;;;;;9.41;82.91;97726.09;4995150;28;20070;-52
2023/05/19 06:05:16;;;;;;;6.60;2.67;;;;;;;9.52;80.88;97729.84;4984082;28;20045;-53
2023/05/19 06:07:45;;;;;;;4.40;2.33;;;;;;;9.56;80.60;97729.16;4972054;28;20638;-50
2023/05/19 06:10:17;;;;;;;5.22;2.10;;;;;;;9.71;80.02;97731.38;4983469;28;20053;-49
2023/05/19 06:12:44;;;;;;;6.30;3.17;;;;;;;9.86;78.38;97735.44;4979480;28;20046;-51
2023/05/19 06:15:10;;;;;;;7.47;2.42;;;;;;;9.84;78.93;97730.28;4991869;28;20460;-49
2023/05/19 06:18:09;;;;;;;6.93;2.58;;;;;;;9.77;80.53;97724.19;4956939;28;20062;-52
2023/05/19 06:20:38;;;;;;;7.88;2.30;;;;;;;9.86;80.01;97727.34;4986548;28;20038;-50
2023/05/19 06:23:04;;;;;;;7.90;2.13;;;;;;;9.97;79.31;97726.50;4983753;28;20361;-47
2023/05/19 06:25:31;;;;;;;6.25;2.50;;;;;;;10.12;78.32;97731.41;4987935;28;20456;-46
2023/05/19 06:27:58;;;;;;;5.68;2.47;;;;;;;10.21;78.35;97722.91;4987264;28;20100;-48
2023/05/19 06:30:26;;;;;;;6.90;2.50;;;;;;;10.38;77.68;97722.94;4981265;28;20074;-50
2023/05/19 06:33:07;;;;;;;8.27;2.47;;;;;;;10.45;77.25;97734.47;4986898;28;20054;-48
2023/05/19 06:35:34;;;;;;;6.30;2.80;;;;;;;10.54;76.78;97724.91;4988586;28;20042;-56
2023/05/19 06:38:01;;;;;;;5.30;2.58;;;;;;;10.44;76.29;97727.44;4987246;28;20038;-48
2023/05/19 06:40:28;;;;;;;7.03;2.30;;;;;;;10.62;76.87;97725.56;4985018;28;20127;-49
2023/05/19 06:42:55;;;;;;;7.80;2.42;;;;;;;10.70;76.38;97718.94;4992230;28;20054;-50
2023/05/19 06:45:31;;;;;;;7.22;2.50;;;;;;;10.78;75.28;97716.66;4980196;28;20045;-50
2023/05/19 06:48:00;;;;;;;7.53;2.65;;;;;;;10.98;75.86;97719.94;4981965;28;20138;-51
2023/05/19 06:50:27;;;;;;;8.63;2.67;;;;;;;11.09;74.19;97729.06;4982442;28;20111;-48
2023/05/19 06:52:56;;;;;;;7.47;2.80;;;;;;;11.21;73.15;97735.22;4976689;28;20047;-51
2023/05/19 06:55:23;;;;;;;6.95;2.63;;;;;;;11.28;73.14;97724.22;4977288;28;20510;-46
2023/05/19 06:57:49;;;;;;;7.78;2.53;;;;;;;11.37;73.38;97720.00;4984370;28;20430;-46
2023/05/19 07:00:18;;;;;;;7.97;2.55;;;;;;;11.47;73.36;97730.19;4980043;28;20105;-50
2023/05/19 07:02:49;;;;;;;7.43;2.78;;;;;;;11.64;73.89;97729.34;4974396;28;20042;-47
2023/05/19 07:05:17;;;;;;;5.07;2.50;;;;;;;11.66;72.75;97719.03;4989178;28;20501;-46
2023/05/19 07:07:48;;;;;;;6.15;2.67;;;;;;;11.65;72.20;97726.34;4978683;28;20043;-50
2023/05/19 07:10:20;;;;;;;5.43;2.45;;;;;;;11.66;72.40;97725.31;4977999;28;20050;-48
2023/05/19 07:12:47;;;;;;;5.40;2.53;;;;;;;11.84;72.02;97726.06;4981402;28;20519;-51
2023/05/19 07:15:15;;;;;;;9.38;4.05;;;;;;;12.05;71.29;97718.19;4986519;28;20742;-52
2023/05/19 07:17:42;;;;;;;7.30;2.90;;;;;;;12.16;70.96;97721.88;4981303;28;20493;-47
2023/05/19 07:20:09;;;;;;;6.78;2.63;;;;;;;12.23;70.48;97722.47;4978848;28;20053;-52
2023/05/19 07:22:38;;;;;;;10.32;3.15;;;;;;;12.20;69.88;97717.59;4979363;28;20541;-50
2023/05/19 07:25:08;;;;;;;7.72;2.45;;;;;;;12.43;69.85;97721.06;4975771;28;20042;-53
2023/05/19 07:27:35;;;;;;;10.82;2.58;;;;;;;12.28;70.27;97709.00;4981557;28;20484;-51
2023/05/19 07:30:03;;;;;;;7.53;2.55;;;;;;;12.42;70.64;97714.81;4983955;28;20053;-47
2023/05/19 07:32:29;;;;;;;3.83;2.33;;;;;;;12.59;69.67;97711.19;4981340;28;20045;-46
2023/05/19 07:34:56;;;;;;;5.63;2.67;;;;;;;12.59;69.75;97711.19;4980836;28;20137;-50
2023/05/19 07:37:22;;;;;;;6.32;2.80;;;;;;;12.87;68.23;97712.78;4984646;28;20421;-46
2023/05/19 07:39:49;;;;;;;14.00;2.92;;;;;;;12.96;68.18;97706.88;4985997;28;20123;-47
2023/05/19 07:42:15;;;;;;;6.00;3.08;;;;;;;12.97;68.46;97705.84;4989078;28;20048;-53
2023/05/19 07:44:42;;;;;;;7.00;2.92;;;;;;;12.88;68.83;97698.16;4978794;28;20168;-50
2023/05/19 07:47:08;;;;;;;7.93;3.13;;;;;;;12.72;69.78;97707.25;4986666;28;20581;-50
2023/05/19 07:49:35;;;;;;;7.15;2.90;;;;;;;12.88;68.58;97698.16;4958675;28;20056;-51
2023/05/19 07:52:02;;;;;;;8.10;3.20;;;;;;;12.57;68.66;97695.13;4967198;28;20117;-48
2023/05/19 07:54:28;;;;;;;7.95;2.80;;;;;;;12.51;68.52;97706.22;4987280;28;20052;-47
2023/05/19 07:56:55;;;;;;;6.85;3.03;;;;;;;12.47;69.40;97700.47;4986900;28;20582;-47
2023/05/19 07:59:22;;;;;;;7.75;3.22;;;;;;;12.63;68.58;97697.94;4976919;28;20112;-54
2023/05/19 08:01:48;;;;;;;5.22;2.78;;;;;;;12.86;67.71;97703.00;4985906;28;20044;-53
2023/05/19 08:04:15;;;;;;;7.10;2.90;;;;;;;12.81;67.18;97702.97;4983978;28;20045;-51
2023/05/19 08:06:43;;;;;;;6.57;2.72;;;;;;;12.85;67.86;97692.41;4983153;28;20038;-55
2023/05/19 08:09:09;;;;;;;7.88;2.40;;;;;;;13.16;67.80;97694.53;4986823;28;20046;-54
2023/05/19 08:11:36;;;;;;;8.45;3.20;;;;;;;13.17;66.49;97696.19;4983955;28;20034;-47
2023/05/19 08:14:03;;;;;;;7.13;2.80;;;;;;;12.94;67.43;97690.84;4989608;28;20034;-48
2023/05/19 08:16:29;;;;;;;6.10;2.78;;;;;;;12.84;67.63;97688.88;4987993;28;20536;-49
2023/05/19 08:18:56;;;;;;;8.30;3.17;;;;;;;12.80;68.00;97684.22;4988470;28;20422;-53
2023/05/19 08:21:23;;;;;;;5.43;2.78;;;;;;;12.64;68.19;97688.69;4983398;28;20042;-45
2023/05/19 08:23:50;;;;;;;9.90;2.92;;;;;;;12.62;68.23;97678.09;4987825;28;20057;-49
2023/05/19 08:26:16;;;;;;;12.98;3.60;;;;;;;12.84;68.21;97683.44;4981765;28;20046;-46
2023/05/19 08:28:43;;;;;;;5.47;2.75;;;;;;;13.15;66.56;97682.84;4983999;28;20057;-53
2023/05/19 08:31:09;;;;;;;7.25;2.80;;;;;;;13.22;65.70;97680.72;4996915;28;20073;-54
2023/05/19 08:33:36;;;;;;;9.23;2.80;;;;;;;13.42;64.35;97681.13;4988980;28;20100;-48
2023/05/19 08:36:03;;;;;;;7.07;2.58;;;;;;;13.16;66.53;97684.47;4983165;28;20365;-54
2023/05/19 08:38:30;;;;;;;7.95;2.70;;;;;;;12.96;66.01;97680.53;4984922;28;20057;-52
2023/05/19 08:40:57;;;;;;;6.88;2.80;;;;;;;12.76;67.32;97673.03;4988421;28;20048;-55
2023/05/19 08:43:24;;;;;;;5.63;2.70;;;;;;;12.92;67.09;97675.88;4986104;28;20077;-54
2023/05/19 08:45:52;;;;;;;5.30;2.60;;;;;;;13.03;67.11;97672.16;4990304;28;20042;-54
2023/05/19 08:48:21;;;;;;;10.73;3.42;;;;;;;13.21;65.94;97672.81;4987989;28;20050;-52
2023/05/19 08:51:07;;;;;;;6.35;2.75;;;;;;;13.56;62.87;97671.41;4986154;28;20089;-50
2023/05/19 08:53:38;;;;;;;9.75;4.20;;;;;;;13.47;63.26;97664.81;4964438;28;22658;-51
2023/05/19 08:56:15;;;;;;;6.73;2.43;;;;;;;13.54;64.04;97665.44;4960022;28;20116;-54
2023/05/19 08:58:43;;;;;;;7.00;2.53;;;;;;;13.75;63.23;97668.25;4989961;28;20293;-54
2023/05/19 09:01:13;;;;;;;6.68;3.05;;;;;;;13.63;61.30;97672.00;4986762;28;21023;-55
2023/05/19 09:03:40;;;;;;;5.45;2.45;;;;;;;13.61;61.24;97673.34;4983673;28;20064;-55
2023/05/19 09:06:11;;;;;;;8.75;2.55;;;;;;;13.43;61.40;97663.69;4987417;28;20046;-55
2023/05/19 09:08:38;;;;;;;11.25;3.15;;;;;;;13.36;61.85;97670.22;4983406;28;20687;-57
2023/05/19 09:11:05;;;;;;;12.38;3.15;;;;;;;13.74;61.03;97670.16;4982980;28;20198;-54
2023/05/19 09:13:31;;;;;;;7.28;2.72;;;;;;;13.52;61.37;97664.88;4988014;28;20046;-53
2023/05/19 09:15:58;;;;;;;6.50;2.80;;;;;;;13.59;60.83;97662.75;4990603;28;20716;-52
2023/05/19 09:18:25;;;;;;;6.25;2.85;;;;;;;13.62;61.06;97664.94;4994566;28;20048;-55
2023/05/19 09:20:59;;;;;;;5.25;2.17;;;;;;;13.39;62.12;97658.78;4988103;28;20046;-52
2023/05/19 09:23:28;;;;;;;8.05;2.72;;;;;;;13.72;60.76;97664.16;4986248;28;20061;-57
2023/05/19 09:25:56;;;;;;;8.13;3.03;;;;;;;13.76;61.02;97664.44;4986745;28;20035;-58
2023/05/19 09:28:26;;;;;;;5.00;2.40;;;;;;;13.63;61.04;97671.19;4988889;28;20050;-52
2023/05/19 09:31:01;;;;;;;6.88;2.72;;;;;;;13.57;61.14;97672.25;4990398;28;20082;-52
2023/05/19 09:33:28;;;;;;;6.53;2.70;;;;;;;13.78;60.74;97665.00;4984414;28;20100;-49
2023/05/19 09:35:55;;;;;;;5.03;2.50;;;;;;;13.74;61.17;97659.28;4978901;28;20304;-52
2023/05/19 09:38:26;;;;;;;7.97;2.63;;;;;;;13.44;62.09;97659.91;4960658;28;20417;-50
2023/05/19 09:40:56;;;;;;;7.18;3.13;;;;;;;13.50;63.09;97664.31;4989086;28;20045;-50
2023/05/19 09:43:23;;;;;;;8.23;2.80;;;;;;;13.86;60.87;97666.41;4987490;28;20058;-57
2023/05/19 09:46:00;;;;;;;7.38;2.70;;;;;;;13.39;61.78;97661.50;4988102;28;20125;-54
2023/05/19 09:48:27;;;;;;;6.78;2.80;;;;;;;13.47;63.12;97670.25;4985790;28;20066;-50
2023/05/19 09:50:53;;;;;;;5.40;2.72;;;;;;;13.54;61.75;97662.72;4986083;28;20242;-55
2023/05/19 09:53:21;;;;;;;8.07;2.50;;;;;;;13.49;62.13;97660.78;4987880;28;20046;-56
2023/05/19 09:55:48;;;;;;;8.93;2.92;;;;;;;13.71;61.22;97667.94;4991595;28;20046;-55
2023/05/19 09:58:17;;;;;;;6.85;2.60;;;;;;;13.55;62.20;97663.53;4986603;28;20050;-53
2023/05/19 10:00:46;;;;;;;7.22;2.60;;;;;;;13.58;61.72;97660.28;4988196;28;20042;-54
2023/05/19 10:03:15;;;;;;;4.90;2.22;;;;;;;13.79;61.82;97653.84;4984191;28;20161;-56
2023/05/19 10:05:42;;;;;;;7.03;2.53;;;;;;;13.41;61.92;97661.25;4983797;28;20050;-55
2023/05/19 10:08:11;;;;;;;6.93;2.78;;;;;;;13.74;61.42;97651.09;4986018;28;20092;-55
2023/05/19 10:10:37;;;;;;;9.15;2.92;;;;;;;13.89;61.06;97650.34;4988704;28;20053;-54
2023/05/19 10:13:05;;;;;;;4.55;2.10;;;;;;;13.78;61.08;97656.81;4985891;28;20498;-55
2023/05/19 10:15:31;;;;;;;6.45;2.72;;;;;;;13.96;61.09;97658.25;4987163;28;20045;-55
2023/05/19 10:18:07;;;;;;;8.73;2.85;;;;;;;13.79;61.55;97655.75;4985801;28;20049;-54
2023/05/19 10:20:34;;;;;;;7.85;3.13;;;;;;;14.26;60.71;97653.19;4986802;28;20041;-53
2023/05/19 10:23:02;;;;;;;6.05;2.60;;;;;;;14.45;60.32;97653.50;4986442;28;20121;-53
2023/05/19 10:25:34;;;;;;;8.27;3.00;;;;;;;14.24;59.57;97649.91;4983584;28;20061;-54
2023/05/19 10:28:06;;;;;;;5.45;2.95;;;;;;;14.41;59.04;97649.66;4984366;28;20049;-54
2023/05/19 10:30:46;;;;;;;4.90;2.08;;;;;;;14.18;59.82;97649.06;4987099;28;20049;-52
2023/05/19 10:33:16;;;;;;;5.95;2.28;;;;;;;14.25;60.07;97646.06;4989581;28;20072;-55
2023/05/19 10:36:08;;;;;;;7.13;2.45;;;;;;;13.98;60.50;97647.94;4977244;28;20395;-53
2023/05/19 10:38:57;;;;;;;4.97;2.50;;;;;;;14.20;60.07;97646.91;4984505;28;20400;-54
2023/05/19 10:41:40;;;;;;;35.42;4.97;;;;;;;13.92;59.64;97640.81;4987293;28;20417;-53
2023/05/19 10:44:25;;;;;;;5.15;2.25;;;;;;;13.95;59.56;97644.91;4986890;28;20422;-57
2023/05/19 10:46:52;;;;;;;8.65;2.47;;;;;;;14.12;59.45;97645.50;4988193;28;20057;-60
2023/05/19 10:49:22;;;;;;;6.28;2.70;;;;;;;14.44;59.31;97649.94;4982421;28;20057;-52
2023/05/19 10:51:53;;;;;;;7.75;3.15;;;;;;;14.35;58.80;97643.41;4984131;28;20049;-54
2023/05/19 10:54:45;;;;;;;6.93;2.80;;;;;;;14.73;57.13;97632.25;4986371;28;20052;-54
2023/05/19 10:57:19;;;;;;;14.02;3.65;;;;;;;14.77;56.80;97640.72;4982913;28;20057;-53
2023/05/19 10:59:46;;;;;;;4.43;2.30;;;;;;;14.81;57.14;97639.06;4988393;28;20457;-55
2023/05/19 11:02:43;;;;;;;7.57;2.55;;;;;;;14.19;58.21;97653.41;4983180;28;20044;-55
2023/05/19 11:05:13;;;;;;;7.72;2.33;;;;;;;14.28;58.36;97648.28;4986490;28;20061;-56
2023/05/19 11:07:53;;;;;;;7.38;2.58;;;;;;;14.33;58.50;97648.28;4982090;28;20167;-52
2023/05/19 11:10:24;;;;;;;7.13;2.60;;;;;;;14.25;58.80;97646.06;4979906;28;20081;-53
2023/05/19 11:12:51;;;;;;;6.27;2.53;;;;;;;14.45;58.66;97656.22;4982220;28;20045;-53
2023/05/19 11:15:22;;;;;;;7.10;2.80;;;;;;;14.50;58.08;97648.03;4985818;28;20041;-50
2023/05/19 11:17:50;;;;;;;;;;;;;;;14.62;58.28;97645.03;4980965;28;20051;-56
2023/05/19 11:20:22;;;;;;;6.93;3.33;;;;;;;14.55;59.21;97642.59;4989052;28;19961;-56
2023/05/19 11:23:09;;;;;;;8.73;2.80;;;;;;;14.90;58.28;97642.06;4980663;28;20550;-60
2023/05/19 11:25:51;;;;;;;5.55;2.45;;;;;;;15.07;56.66;97644.50;4983841;28;20768;-53
2023/05/19 11:28:19;;;;;;;5.97;2.75;;;;;;;14.99;57.08;97645.88;4977854;28;20074;-50
2023/05/19 11:30:50;;;;;;;4.85;2.55;;;;;;;15.01;56.93;97645.63;4983273;28;20582;-55
2023/05/19 11:33:19;;;;;;;4.53;2.05;;;;;;;14.84;56.62;97641.25;4986207;28;20117;-57
2023/05/19 11:35:48;;;;;;;9.48;2.90;;;;;;;14.83;57.01;97632.25;4978636;28;20049;-54
2023/05/19 11:38:17;;;;;;;5.25;2.78;;;;;;;14.68;57.32;97633.03;4974167;28;20046;-52
2023/05/19 11:40:43;;;;;;;5.60;2.60;;;;;;;14.31;57.92;97642.28;4960674;28;20462;-50
2023/05/19 11:43:10;;;;;;;5.35;2.38;;;;;;;14.31;58.31;97643.09;4989592;28;20042;-58
2023/05/19 11:45:37;;;;;;;11.05;3.05;;;;;;;14.07;59.57;97636.53;4984494;28;20249;-52